EDT,Max TemperatureF,Mean TemperatureF,Min TemperatureF,Max Dew PointF,MeanDew PointF,Min DewpointF,Max Humidity, Mean Humidity, Min Humidity, Max Sea Level PressureIn, Mean Sea Level PressureIn, Min Sea Level PressureIn, Max VisibilityMiles, Mean VisibilityMiles, Min VisibilityMiles, Max Wind SpeedMPH, Mean Wind SpeedMPH, Max Gust SpeedMPH,PrecipitationIn, CloudCover, Events, WindDirDegrees
2012-10-1,62,54,45,48,46,43,93,78,62,29.97,29.87,29.79,10,10,10,15,7,22,0.00,7,,258
2012-10-2,59,54,49,57,54,48,100,89,77,30.01,29.98,29.95,10,5,0,14,7,32,0.19,8,Fog-Rain,142
2012-10-3,75,66,57,67,63,57,100,87,73,30.15,30.06,29.98,10,5,0,10,4,15,0.01,7,Fog,179
2012-10-4,68,62,56,64,61,53,100,82,63,30.18,30.14,30.08,10,4,0,10,4,13,0.03,5,Fog-Rain,245
2012-10-5,74,64,53,57,54,49,93,75,57,30.08,30.01,29.89,10,10,10,15,6,22,T,3,Rain,237
2012-10-6,61,51,40,55,45,33,93,74,54,30.04,29.87,29.76,10,8,1,17,9,22,0.20,6,Rain,296
2012-10-7,49,43,37,39,36,32,93,77,61,30.11,30.06,30.00,10,10,5,14,5,20,0.07,7,Rain,241
2012-10-8,48,41,33,37,33,30,100,79,58,30.27,30.22,30.10,10,8,0,9,4,24,0.00,2,Fog,232
2012-10-9,57,47,37,46,39,35,93,72,51,30.25,30.16,30.05,10,10,5,14,4,26,T,7,Rain,165
2012-10-10,56,48,40,49,44,36,100,78,55,30.04,29.91,29.80,10,8,1,20,9,28,0.09,7,Rain,220
2012-10-11,51,42,33,35,30,28,89,65,41,30.22,30.11,29.99,10,10,10,18,10,24,0.00,1,,251
2012-10-12,46,39,31,39,31,19,92,68,43,30.44,30.20,30.04,10,10,4,22,9,30,0.06,5,Rain,312
2012-10-13,47,37,26,34,23,20,81,58,34,30.50,30.38,30.13,10,10,10,16,7,25,0.01,2,Rain,192
2012-10-14,66,54,42,51,45,36,89,73,56,30.10,30.00,29.81,10,10,5,17,10,26,0.13,4,Rain,188
2012-10-15,65,56,47,54,47,37,86,67,48,29.78,29.69,29.62,10,10,10,21,11,29,T,5,,237
2012-10-16,50,43,36,37,33,31,76,63,50,29.94,29.84,29.74,10,10,10,18,9,26,T,6,Rain,319
2012-10-17,62,47,32,38,34,30,92,64,36,29.99,29.94,29.90,10,10,9,10,4,31,0.00,0,,178
2012-10-18,59,51,43,50,43,38,86,72,57,29.94,29.90,29.86,10,10,9,24,13,38,0.06,2,Rain,155
2012-10-19,62,55,47,59,51,46,100,92,84,29.88,29.76,29.63,10,6,0,21,5,28,1.03,7,Fog-Rain-Thunderstorm,111
2012-10-20,55,48,41,52,44,35,96,75,54,29.81,29.70,29.64,10,9,0,20,9,24,T,4,Fog-Rain,232
2012-10-21,57,49,41,41,37,32,89,66,43,30.06,29.96,29.82,10,10,10,21,10,29,0.00,4,,273
2012-10-22,61,50,39,42,39,37,92,67,42,30.13,30.09,30.05,10,10,9,17,6,24,0.00,0,,297
2012-10-23,54,48,42,52,47,40,100,86,71,30.13,30.08,30.03,10,3,0,8,3,10,0.61,7,Fog-Rain,145
2012-10-24,60,57,53,57,55,52,100,97,93,30.16,30.10,30.07,5,1,0,7,2,9,0.08,8,Fog-Rain,198
2012-10-25,62,58,53,55,53,52,100,90,80,30.21,30.18,30.15,10,4,0,15,9,21,T,6,Fog,152
2012-10-26,60,58,55,54,53,52,93,84,75,30.18,30.15,30.10,10,8,6,13,6,18,0.00,8,,180
2012-10-27,58,54,49,52,51,48,96,88,80,30.11,30.02,29.96,10,8,4,10,5,14,0.00,8,,126
2012-10-28,50,48,45,50,45,39,93,80,66,29.98,29.91,29.78,10,7,0,16,10,20,0.03,7,Fog-Rain,360
2012-10-29,56,51,45,54,45,42,93,90,86,29.76,29.38,28.90,10,8,2,33,19,45,0.52,8,Rain,18
2012-10-30,54,46,38,54,40,36,100,90,80,29.42,29.27,28.92,10,8,2,33,15,49,0.36,8,Rain,144
2012-10-31,39,38,36,36,35,33,92,86,79,29.51,29.44,29.39,10,10,5,12,6,20,0.02,8,Rain,181